createdAt,value
2023-01-06T00:01:17.882Z,12.88
2023-01-06T00:03:44.479Z,12.83
2023-01-06T00:06:12.568Z,12.84
2023-01-06T00:08:40.525Z,12.83
2023-01-06T00:11:12.406Z,12.85
2023-01-06T00:13:39.996Z,12.82
2023-01-06T00:16:12.234Z,12.86
2023-01-06T00:18:39.250Z,12.80
2023-01-06T00:21:06.878Z,12.80
2023-01-06T00:23:34.595Z,12.78
2023-01-06T00:26:01.501Z,12.76
2023-01-06T00:28:28.705Z,12.77
2023-01-06T00:30:55.332Z,12.76
2023-01-06T00:33:21.720Z,13.04
2023-01-06T00:35:48.176Z,12.78
2023-01-06T00:38:14.637Z,12.77
2023-01-06T00:40:41.110Z,12.74
2023-01-06T00:43:07.621Z,12.73
2023-01-06T00:45:34.113Z,12.72
2023-01-06T00:48:00.634Z,12.70
2023-01-06T00:50:27.267Z,12.68
2023-01-06T00:52:54.378Z,12.65
2023-01-06T00:55:20.955Z,12.64
2023-01-06T00:57:47.477Z,12.64
2023-01-06T01:00:14.165Z,12.66
2023-01-06T01:02:40.685Z,12.93
2023-01-06T01:05:07.622Z,12.66
2023-01-06T01:07:34.074Z,12.63
2023-01-06T01:10:00.580Z,12.64
2023-01-06T01:12:27.212Z,12.65
2023-01-06T01:14:54.070Z,12.91
2023-01-06T01:17:26.865Z,12.69
2023-01-06T01:19:55.561Z,12.65
2023-01-06T01:22:23.311Z,12.65
2023-01-06T01:24:50.111Z,12.67
2023-01-06T01:27:17.232Z,12.67
2023-01-06T01:29:43.764Z,12.67
2023-01-06T01:32:10.794Z,12.69
2023-01-06T01:34:37.555Z,12.69
2023-01-06T01:37:04.060Z,12.70
2023-01-06T01:39:30.998Z,12.69
2023-01-06T01:41:58.916Z,12.68
2023-01-06T01:44:56.426Z,12.81
2023-01-06T01:47:44.786Z,12.81
2023-01-06T01:50:14.846Z,12.74
2023-01-06T01:52:43.697Z,12.71
2023-01-06T01:55:11.642Z,12.70
2023-01-06T01:57:45.120Z,12.73
2023-01-06T02:00:12.086Z,12.71
2023-01-06T02:02:39.222Z,12.73
2023-01-06T02:05:07.593Z,12.74
2023-01-06T02:07:34.250Z,12.72
2023-01-06T02:10:04.961Z,13.05
2023-01-06T02:12:31.960Z,12.79
2023-01-06T02:14:58.445Z,12.78
2023-01-06T02:17:45.431Z,12.87
2023-01-06T02:20:43.491Z,12.87
2023-01-06T02:23:23.304Z,12.92
2023-01-06T02:26:17.862Z,12.90
2023-01-06T02:29:30.330Z,12.95
2023-01-06T02:32:08.616Z,12.90
2023-01-06T02:34:59.664Z,12.98
2023-01-06T02:38:03.133Z,13.00
2023-01-06T02:40:41.117Z,12.92
2023-01-06T02:43:32.719Z,12.96
2023-01-06T02:46:08.120Z,12.98
2023-01-06T02:48:45.060Z,12.97
2023-01-06T02:51:24.787Z,13.02
2023-01-06T02:54:27.159Z,13.10
2023-01-06T02:57:21.860Z,13.07
2023-01-06T03:00:04.085Z,13.00
2023-01-06T03:02:32.120Z,12.95
2023-01-06T03:05:02.145Z,12.97
2023-01-06T03:07:31.846Z,12.96
2023-01-06T03:10:01.490Z,12.95
2023-01-06T03:12:37.723Z,12.99
2023-01-06T03:15:04.658Z,12.98
2023-01-06T03:17:31.287Z,12.97
2023-01-06T03:19:57.743Z,13.24
2023-01-06T03:22:25.441Z,13.03
2023-01-06T03:24:52.285Z,13.00
2023-01-06T03:27:23.175Z,13.04
2023-01-06T03:29:49.656Z,13.02
2023-01-06T03:32:37.460Z,13.13
2023-01-06T03:35:21.923Z,13.31
2023-01-06T03:37:52.321Z,13.08
2023-01-06T03:40:35.647Z,13.12
2023-01-06T03:43:41.664Z,13.13
2023-01-06T03:46:29.988Z,13.09
2023-01-06T03:49:02.375Z,13.05
2023-01-06T03:51:55.648Z,13.18
2023-01-06T03:54:41.044Z,13.11
2023-01-06T03:57:15.276Z,13.14
2023-01-06T03:59:47.406Z,13.12
2023-01-06T04:02:15.167Z,13.08
2023-01-06T04:04:41.728Z,13.09
2023-01-06T04:07:08.335Z,13.11
2023-01-06T04:09:34.789Z,13.12
2023-01-06T04:12:19.868Z,13.12
2023-01-06T04:14:46.320Z,13.13
2023-01-06T04:17:13.745Z,13.14
2023-01-06T04:19:40.349Z,13.13
2023-01-06T04:22:06.851Z,13.14
2023-01-06T04:24:33.311Z,13.15
2023-01-06T04:26:59.833Z,13.16
2023-01-06T04:29:26.309Z,13.17
2023-01-06T04:31:52.793Z,13.17
2023-01-06T04:34:19.309Z,13.19
2023-01-06T04:36:45.764Z,13.18
2023-01-06T04:39:12.213Z,13.18
2023-01-06T04:41:38.661Z,13.20
2023-01-06T04:44:05.209Z,13.20
2023-01-06T04:46:31.658Z,13.21
2023-01-06T04:48:58.134Z,13.22
2023-01-06T04:51:24.566Z,13.22
2023-01-06T04:53:51.181Z,13.25
2023-01-06T04:56:17.658Z,13.25
2023-01-06T04:58:44.172Z,13.27
2023-01-06T05:01:12.427Z,13.27
2023-01-06T05:03:39.760Z,13.27
2023-01-06T05:06:12.199Z,13.27
2023-01-06T05:08:40.242Z,13.28
2023-01-06T05:11:10.058Z,13.30
2023-01-06T05:13:37.319Z,13.30
2023-01-06T05:16:12.380Z,13.35
2023-01-06T12:03:43.948Z,14.22
2023-01-06T12:06:13.733Z,14.18
2023-01-06T12:08:51.879Z,14.18
2023-01-06T12:11:43.485Z,14.26
2023-01-06T12:14:27.830Z,14.20
2023-01-06T12:17:33.543Z,14.30
2023-01-06T12:20:13.336Z,14.25
2023-01-06T12:23:01.039Z,14.31
2023-01-06T12:25:43.519Z,14.31
2023-01-06T12:28:18.361Z,14.24
2023-01-06T12:31:03.541Z,14.35
2023-01-06T12:33:39.943Z,14.32
2023-01-06T12:36:23.234Z,14.38
2023-01-06T12:38:56.231Z,14.39
2023-01-06T12:41:28.524Z,14.35
2023-01-06T12:44:24.263Z,14.48
2023-01-06T12:47:02.351Z,14.40
2023-01-06T12:49:40.140Z,14.43
2023-01-06T12:52:13.098Z,14.43
2023-01-06T12:54:40.069Z,14.43
2023-01-06T12:57:44.104Z,14.57
2023-01-06T13:00:30.987Z,14.49
2023-01-06T13:03:10.651Z,14.58
2023-01-06T13:06:05.546Z,14.65
2023-01-06T13:09:06.774Z,14.74
2023-01-06T13:12:00.752Z,14.62
2023-01-06T13:14:40.990Z,14.68
2023-01-06T13:17:26.284Z,14.73
2023-01-06T13:19:56.095Z,14.65
2023-01-06T13:23:17.868Z,14.80
2023-01-06T13:25:49.407Z,14.70
2023-01-06T13:28:25.227Z,14.73
2023-01-06T13:31:09.738Z,14.65
2023-01-06T13:33:39.073Z,14.65
2023-01-06T13:36:08.251Z,14.64
2023-01-06T13:39:05.609Z,14.76
2023-01-06T13:41:37.147Z,14.71
2023-01-06T13:44:07.209Z,14.64
2023-01-06T13:46:34.893Z,14.63
2023-01-06T13:49:05.127Z,14.69
2023-01-06T13:51:37.744Z,14.68
2023-01-06T13:54:04.334Z,14.64
2023-01-06T13:56:32.112Z,14.92
2023-01-06T13:59:21.315Z,14.77
2023-01-06T14:01:48.465Z,14.64
2023-01-06T14:04:33.357Z,14.75
2023-01-06T14:07:00.663Z,14.62
2023-01-06T14:09:28.383Z,14.63
2023-01-06T14:12:08.405Z,14.66
2023-01-06T14:14:38.605Z,14.71
2023-01-06T14:17:05.455Z,14.76
2023-01-06T14:19:37.098Z,14.85
2023-01-06T14:22:19.008Z,14.96
2023-01-06T14:24:53.395Z,14.97
2023-01-06T14:27:47.846Z,15.06
2023-01-06T14:31:11.628Z,15.10
2023-01-06T14:33:39.926Z,15.01
2023-01-06T14:36:14.114Z,15.02
2023-01-06T14:38:50.522Z,15.04
2023-01-06T14:41:29.292Z,15.05
2023-01-06T14:44:19.124Z,15.09
2023-01-06T14:46:51.617Z,14.99
2023-01-06T14:49:31.307Z,14.96
2023-01-06T14:52:19.320Z,14.91
2023-01-06T14:54:48.252Z,14.89
2023-01-06T14:57:35.045Z,14.98
2023-01-06T15:00:30.066Z,14.99
2023-01-06T15:02:58.825Z,14.82
2023-01-06T15:05:37.249Z,14.84
2023-01-06T15:08:16.373Z,14.84
2023-01-06T15:10:48.586Z,14.73
2023-01-06T15:13:28.012Z,14.76
2023-01-06T15:16:02.968Z,14.71
2023-01-06T15:18:29.740Z,14.66
2023-01-06T15:20:56.564Z,14.63
2023-01-06T15:23:23.169Z,14.61
2023-01-06T15:25:50.398Z,14.88
2023-01-06T15:28:27.116Z,14.69
2023-01-06T15:30:54.073Z,14.60
2023-01-06T15:33:27.821Z,14.59
2023-01-06T15:35:55.079Z,14.51
2023-01-06T15:38:31.142Z,14.53
2023-01-06T15:40:57.897Z,14.42
2023-01-06T15:43:26.965Z,14.43
2023-01-06T15:46:03.845Z,14.46
2023-01-06T15:48:34.042Z,14.43
2023-01-06T15:51:01.159Z,14.37
2023-01-06T15:53:32.689Z,14.38
2023-01-06T15:56:00.939Z,14.32
2023-01-06T15:58:39.653Z,14.39
2023-01-06T16:01:13.446Z,14.33
2023-01-06T16:03:40.336Z,14.26
2023-01-06T16:06:12.714Z,14.28
2023-01-06T16:08:40.572Z,14.23
2023-01-06T16:11:15.955Z,14.28
2023-01-06T16:14:03.253Z,14.33
2023-01-06T16:16:43.037Z,14.27
2023-01-06T16:19:22.947Z,14.28
2023-01-06T16:22:02.864Z,14.25
2023-01-06T16:24:30.296Z,14.16
2023-01-06T16:27:06.081Z,14.23
2023-01-06T16:29:38.264Z,14.20
2023-01-06T16:32:33.750Z,14.27
2023-01-06T16:35:17.979Z,14.21
2023-01-06T16:37:45.458Z,14.15
2023-01-06T16:40:16.990Z,14.19
2023-01-06T16:42:44.983Z,14.12
2023-01-06T16:45:32.335Z,14.25
2023-01-06T16:47:59.453Z,14.11
2023-01-06T16:50:38.402Z,14.20
2023-01-06T16:53:16.388Z,14.16
2023-01-06T16:55:43.584Z,14.07
2023-01-06T16:58:18.183Z,14.10
2023-01-06T17:00:51.644Z,14.06
2023-01-06T17:03:24.335Z,14.06
2023-01-06T17:05:54.038Z,14.06
2023-01-06T17:08:32.573Z,14.09
2023-01-06T17:11:01.892Z,14.00
2023-01-06T17:13:35.630Z,13.98
2023-01-06T17:16:17.480Z,14.02
2023-01-06T17:18:51.828Z,14.01
2023-01-06T17:21:28.560Z,13.96
2023-01-06T17:24:02.557Z,13.98
2023-01-06T17:26:29.740Z,13.91
2023-01-06T17:28:57.658Z,13.88
2023-01-06T17:31:47.040Z,13.91
2023-01-06T17:34:25.077Z,13.92
2023-01-06T17:36:55.847Z,13.85
2023-01-06T17:39:31.264Z,13.89
2023-01-06T17:42:05.323Z,13.84
2023-01-06T17:44:48.402Z,13.87
2023-01-06T17:47:15.235Z,13.76
2023-01-06T17:49:46.637Z,13.76
2023-01-06T17:52:21.653Z,13.75
2023-01-06T17:55:16.738Z,13.75
2023-01-06T17:57:46.993Z,13.67
2023-01-06T18:00:18.892Z,13.69
2023-01-06T18:05:25.988Z,13.67
2023-01-06T18:08:07.453Z,13.68
2023-01-06T18:10:36.687Z,13.56
2023-01-06T18:13:19.086Z,13.62
2023-01-06T18:15:46.843Z,13.53
2023-01-06T18:18:27.502Z,13.58
2023-01-06T18:20:58.916Z,13.52
2023-01-06T18:23:26.526Z,13.44
2023-01-06T18:25:57.193Z,13.47
2023-01-06T18:28:23.708Z,13.40
2023-01-06T18:31:01.387Z,13.43
2023-01-06T18:33:29.576Z,13.36
2023-01-06T18:35:59.329Z,13.34
2023-01-06T18:38:30.104Z,13.32
2023-01-06T18:40:56.821Z,13.30
2023-01-06T18:43:28.077Z,13.61
2023-01-06T18:45:58.072Z,13.32
2023-01-06T18:48:29.717Z,13.29
2023-01-06T18:50:58.489Z,13.22
2023-01-06T18:53:43.244Z,13.28
2023-01-06T18:56:21.550Z,13.18
2023-01-06T18:58:52.457Z,13.10
2023-01-06T19:01:23.557Z,13.09
2023-01-06T19:03:59.119Z,13.05
2023-01-06T19:06:38.625Z,13.06
2023-01-06T19:09:17.089Z,13.00
2023-01-06T19:11:43.936Z,12.89
2023-01-06T19:14:17.222Z,12.89
2023-01-06T19:16:48.777Z,12.80
2023-01-06T19:19:40.278Z,12.91
2023-01-06T19:22:16.200Z,12.79
2023-01-06T19:24:59.331Z,12.81
2023-01-06T19:27:35.130Z,12.75
2023-01-06T19:30:28.622Z,12.77
2023-01-06T19:32:57.955Z,12.60
2023-01-06T19:35:27.214Z,12.57
2023-01-06T19:37:59.674Z,12.53
2023-01-06T19:40:31.389Z,12.49
2023-01-06T19:43:02.522Z,12.44
2023-01-06T19:45:32.541Z,12.41
2023-01-06T19:48:01.025Z,12.36
2023-01-06T19:50:27.471Z,12.68
2023-01-06T19:52:59.375Z,12.43
2023-01-06T19:55:28.785Z,12.38
2023-01-06T19:57:57.046Z,12.33
2023-01-06T20:00:30.919Z,12.36
2023-01-06T20:03:01.839Z,12.32
2023-01-06T20:05:29.860Z,12.28
2023-01-06T20:07:56.341Z,12.26
2023-01-06T20:10:23.038Z,12.28
2023-01-06T20:12:49.675Z,12.57
2023-01-06T20:15:16.498Z,12.28
2023-01-06T20:17:43.096Z,12.24
2023-01-06T20:20:09.807Z,12.55
2023-01-06T20:22:36.355Z,12.26
2023-01-06T20:25:03.258Z,12.22
2023-01-06T20:27:29.770Z,12.19
2023-01-06T20:29:56.300Z,12.19
2023-01-06T20:32:22.804Z,12.17
2023-01-06T20:34:49.586Z,12.16
2023-01-06T20:37:16.110Z,12.15
2023-01-06T20:39:42.646Z,12.16
2023-01-06T20:42:09.724Z,12.16
2023-01-06T20:44:36.844Z,12.14
2023-01-06T20:47:03.714Z,12.15
2023-01-06T20:49:30.255Z,12.14
2023-01-06T20:51:56.752Z,12.13
2023-01-06T20:54:23.333Z,12.14
2023-01-06T20:56:49.884Z,12.13
2023-01-06T20:59:16.435Z,12.14
2023-01-06T21:01:43.040Z,12.12
2023-01-06T21:04:09.607Z,12.42
2023-01-06T21:06:36.114Z,12.17
2023-01-06T21:09:02.868Z,12.14
2023-01-06T21:11:29.400Z,12.41
2023-01-06T21:13:56.030Z,12.14
2023-01-06T21:16:22.845Z,12.42
2023-01-06T21:18:49.857Z,12.13
2023-01-06T21:21:16.413Z,12.09
2023-01-06T21:23:43.148Z,12.09
2023-01-06T21:26:09.724Z,12.09
2023-01-06T21:28:36.224Z,12.09
2023-01-06T21:31:02.802Z,12.09
2023-01-06T21:33:29.442Z,12.09
2023-01-06T21:35:55.960Z,12.11
2023-01-06T21:38:22.535Z,12.11
2023-01-06T21:40:49.143Z,12.12
2023-01-06T21:43:15.682Z,12.12
2023-01-06T21:45:44.145Z,12.14
2023-01-06T21:48:12.556Z,12.14
2023-01-06T21:50:43.536Z,12.15
2023-01-06T21:53:12.268Z,12.13
2023-01-06T21:55:39.260Z,12.13
2023-01-06T21:58:05.850Z,12.14
2023-01-06T22:00:32.516Z,12.15
2023-01-06T22:02:59.105Z,12.15
2023-01-06T22:05:25.642Z,12.45
2023-01-06T22:07:53.184Z,12.19
2023-01-06T22:10:22.988Z,12.18
2023-01-06T22:12:52.792Z,12.16
2023-01-06T22:15:19.973Z,12.12
2023-01-06T22:17:46.771Z,12.11
2023-01-06T22:20:13.706Z,12.10
2023-01-06T22:22:41.234Z,12.09
2023-01-06T22:25:08.249Z,12.10
2023-01-06T22:27:34.762Z,12.09
2023-01-06T22:30:01.257Z,12.10
2023-01-06T22:32:28.469Z,12.10
2023-01-06T22:34:54.993Z,12.08
2023-01-06T22:37:21.566Z,12.09
2023-01-06T22:39:49.312Z,12.09
2023-01-06T22:42:16.211Z,12.08
2023-01-06T22:44:42.726Z,12.09
2023-01-06T22:47:09.257Z,12.09
2023-01-06T22:49:35.761Z,12.10
2023-01-06T22:52:02.325Z,12.08
2023-01-06T22:54:29.062Z,12.10
2023-01-06T22:56:55.611Z,12.09
2023-01-06T22:59:22.123Z,12.09
2023-01-06T23:01:48.780Z,12.09
2023-01-06T23:04:15.197Z,12.39
2023-01-06T23:06:42.199Z,12.12
2023-01-06T23:09:09.050Z,12.09
2023-01-06T23:11:41.565Z,12.10
2023-01-06T23:14:09.826Z,12.10
2023-01-06T23:16:38.337Z,12.10
2023-01-06T23:19:05.911Z,12.12
2023-01-06T23:21:33.890Z,12.14
2023-01-06T23:24:01.206Z,12.15
2023-01-06T23:26:30.880Z,12.20
2023-01-06T23:28:57.968Z,12.22
2023-01-06T23:31:30.493Z,12.28
2023-01-06T23:34:00.371Z,12.32
2023-01-06T23:36:30.707Z,12.35
2023-01-06T23:38:59.679Z,12.40
2023-01-06T23:41:31.821Z,12.48
2023-01-06T23:43:58.849Z,12.48
2023-01-06T23:46:29.364Z,12.56
2023-01-06T23:48:56.990Z,12.58
2023-01-06T23:51:25.410Z,12.63
2023-01-06T23:53:52.970Z,12.66
2023-01-06T23:56:22.241Z,12.70
2023-01-06T23:58:51.789Z,12.73
